sensor_id;sensor_type;location;lat;lon;timestamp;P1;durP1;ratioP1;P2;durP2;ratioP2
16922;SDS011;8578;50.938;13.556;2022-12-18T00:00:48;8.77;;;3.63;;
16922;SDS011;8578;50.938;13.556;2022-12-18T00:03:15;8.63;;;4.03;;
16922;SDS011;8578;50.938;13.556;2022-12-18T00:05:47;11.30;;;4.43;;
16922;SDS011;8578;50.938;13.556;2022-12-18T00:08:15;12.90;;;4.43;;
16922;SDS011;8578;50.938;13.556;2022-12-18T00:10:44;11.03;;;4.07;;
16922;SDS011;8578;50.938;13.556;2022-12-18T00:13:11;8.10;;;3.17;;
16922;SDS011;8578;50.938;13.556;2022-12-18T00:15:41;10.77;;;4.57;;
16922;SDS011;8578;50.938;13.556;2022-12-18T00:18:09;8.70;;;3.90;;
16922;SDS011;8578;50.938;13.556;2022-12-18T00:20:41;6.77;;;3.23;;
16922;SDS011;8578;50.938;13.556;2022-12-18T00:23:08;9.10;;;4.43;;
16922;SDS011;8578;50.938;13.556;2022-12-18T00:25:36;9.57;;;4.33;;
16922;SDS011;8578;50.938;13.556;2022-12-18T00:28:03;8.20;;;3.73;;
16922;SDS011;8578;50.938;13.556;2022-12-18T00:30:31;11.53;;;4.70;;
16922;SDS011;8578;50.938;13.556;2022-12-18T00:33:00;13.10;;;4.70;;
16922;SDS011;8578;50.938;13.556;2022-12-18T00:35:27;14.40;;;4.50;;
16922;SDS011;8578;50.938;13.556;2022-12-18T00:37:55;15.17;;;4.43;;
16922;SDS011;8578;50.938;13.556;2022-12-18T00:40:22;10.43;;;4.70;;
16922;SDS011;8578;50.938;13.556;2022-12-18T00:42:50;12.33;;;5.37;;
16922;SDS011;8578;50.938;13.556;2022-12-18T00:45:24;9.40;;;4.50;;
16922;SDS011;8578;50.938;13.556;2022-12-18T00:47:51;10.43;;;4.07;;
16922;SDS011;8578;50.938;13.556;2022-12-18T00:50:21;9.93;;;4.23;;
16922;SDS011;8578;50.938;13.556;2022-12-18T00:52:49;15.97;;;4.67;;
16922;SDS011;8578;50.938;13.556;2022-12-18T00:55:17;10.83;;;4.53;;
16922;SDS011;8578;50.938;13.556;2022-12-18T00:57:45;12.43;;;3.87;;
16922;SDS011;8578;50.938;13.556;2022-12-18T01:00:14;8.53;;;4.13;;
16922;SDS011;8578;50.938;13.556;2022-12-18T01:02:42;8.43;;;3.87;;
16922;SDS011;8578;50.938;13.556;2022-12-18T01:05:10;8.87;;;4.00;;
16922;SDS011;8578;50.938;13.556;2022-12-18T01:07:39;8.40;;;3.70;;
16922;SDS011;8578;50.938;13.556;2022-12-18T01:10:08;10.13;;;4.07;;
16922;SDS011;8578;50.938;13.556;2022-12-18T01:12:36;9.33;;;3.80;;
16922;SDS011;8578;50.938;13.556;2022-12-18T01:15:05;11.83;;;4.87;;
16922;SDS011;8578;50.938;13.556;2022-12-18T01:17:32;7.03;;;3.87;;
16922;SDS011;8578;50.938;13.556;2022-12-18T01:20:00;10.83;;;3.90;;
16922;SDS011;8578;50.938;13.556;2022-12-18T01:22:28;11.73;;;3.30;;
16922;SDS011;8578;50.938;13.556;2022-12-18T01:24:57;9.43;;;4.30;;
16922;SDS011;8578;50.938;13.556;2022-12-18T01:27:24;10.77;;;4.53;;
16922;SDS011;8578;50.938;13.556;2022-12-18T01:29:52;11.87;;;4.47;;
16922;SDS011;8578;50.938;13.556;2022-12-18T01:32:19;10.00;;;4.00;;
16922;SDS011;8578;50.938;13.556;2022-12-18T01:34:49;10.87;;;3.17;;
16922;SDS011;8578;50.938;13.556;2022-12-18T01:37:16;7.43;;;3.33;;
16922;SDS011;8578;50.938;13.556;2022-12-18T01:39:43;7.63;;;3.20;;
16922;SDS011;8578;50.938;13.556;2022-12-18T01:42:14;11.00;;;4.23;;
16922;SDS011;8578;50.938;13.556;2022-12-18T01:44:59;1.00;;;0.73;;
16922;SDS011;8578;50.938;13.556;2022-12-18T01:47:28;6.60;;;3.83;;
16922;SDS011;8578;50.938;13.556;2022-12-18T01:49:57;9.57;;;2.93;;
16922;SDS011;8578;50.938;13.556;2022-12-18T01:52:25;10.30;;;3.50;;
16922;SDS011;8578;50.938;13.556;2022-12-18T01:54:53;16.03;;;3.53;;
16922;SDS011;8578;50.938;13.556;2022-12-18T01:57:23;9.67;;;3.30;;
16922;SDS011;8578;50.938;13.556;2022-12-18T01:59:52;6.30;;;3.27;;
16922;SDS011;8578;50.938;13.556;2022-12-18T02:02:20;9.57;;;3.27;;
16922;SDS011;8578;50.938;13.556;2022-12-18T02:04:47;8.10;;;3.53;;
16922;SDS011;8578;50.938;13.556;2022-12-18T02:07:17;4.53;;;2.60;;
16922;SDS011;8578;50.938;13.556;2022-12-18T02:09:50;7.63;;;2.67;;
16922;SDS011;8578;50.938;13.556;2022-12-18T02:12:19;6.47;;;2.97;;
16922;SDS011;8578;50.938;13.556;2022-12-18T02:14:52;8.03;;;2.97;;
16922;SDS011;8578;50.938;13.556;2022-12-18T02:17:22;9.77;;;3.33;;
16922;SDS011;8578;50.938;13.556;2022-12-18T02:19:56;7.00;;;3.67;;
16922;SDS011;8578;50.938;13.556;2022-12-18T02:22:29;6.97;;;2.80;;
16922;SDS011;8578;50.938;13.556;2022-12-18T02:25:05;7.63;;;3.03;;
16922;SDS011;8578;50.938;13.556;2022-12-18T02:27:35;10.13;;;4.07;;
16922;SDS011;8578;50.938;13.556;2022-12-18T02:30:05;5.87;;;2.97;;
16922;SDS011;8578;50.938;13.556;2022-12-18T02:32:33;7.87;;;2.80;;
16922;SDS011;8578;50.938;13.556;2022-12-18T02:35:05;12.30;;;3.33;;
16922;SDS011;8578;50.938;13.556;2022-12-18T02:37:34;9.77;;;2.93;;
16922;SDS011;8578;50.938;13.556;2022-12-18T02:40:05;7.37;;;3.10;;
16922;SDS011;8578;50.938;13.556;2022-12-18T02:42:36;6.47;;;2.77;;
16922;SDS011;8578;50.938;13.556;2022-12-18T02:45:06;8.17;;;3.43;;
16922;SDS011;8578;50.938;13.556;2022-12-18T02:47:36;7.10;;;2.93;;
16922;SDS011;8578;50.938;13.556;2022-12-18T02:50:07;7.83;;;3.50;;
16922;SDS011;8578;50.938;13.556;2022-12-18T02:52:39;6.80;;;3.03;;
16922;SDS011;8578;50.938;13.556;2022-12-18T02:55:17;7.73;;;3.30;;
16922;SDS011;8578;50.938;13.556;2022-12-18T02:57:54;8.07;;;3.17;;
16922;SDS011;8578;50.938;13.556;2022-12-18T03:00:28;7.50;;;2.73;;
16922;SDS011;8578;50.938;13.556;2022-12-18T03:02:57;6.93;;;2.50;;
16922;SDS011;8578;50.938;13.556;2022-12-18T03:05:28;5.20;;;2.07;;
16922;SDS011;8578;50.938;13.556;2022-12-18T03:07:58;4.00;;;2.17;;
16922;SDS011;8578;50.938;13.556;2022-12-18T03:10:30;6.50;;;2.40;;
16922;SDS011;8578;50.938;13.556;2022-12-18T03:13:03;9.13;;;3.00;;
16922;SDS011;8578;50.938;13.556;2022-12-18T03:15:35;6.23;;;2.40;;
16922;SDS011;8578;50.938;13.556;2022-12-18T03:18:10;7.50;;;2.53;;
16922;SDS011;8578;50.938;13.556;2022-12-18T03:20:39;7.43;;;3.30;;
16922;SDS011;8578;50.938;13.556;2022-12-18T03:23:09;8.20;;;2.73;;
16922;SDS011;8578;50.938;13.556;2022-12-18T03:25:38;5.50;;;2.57;;
16922;SDS011;8578;50.938;13.556;2022-12-18T03:28:08;6.13;;;2.63;;
16922;SDS011;8578;50.938;13.556;2022-12-18T03:30:37;5.93;;;2.70;;
16922;SDS011;8578;50.938;13.556;2022-12-18T03:33:08;6.03;;;2.10;;
16922;SDS011;8578;50.938;13.556;2022-12-18T03:35:39;4.37;;;2.87;;
16922;SDS011;8578;50.938;13.556;2022-12-18T03:38:09;4.63;;;2.43;;
16922;SDS011;8578;50.938;13.556;2022-12-18T03:40:44;6.50;;;3.00;;
16922;SDS011;8578;50.938;13.556;2022-12-18T03:43:17;9.10;;;2.87;;
16922;SDS011;8578;50.938;13.556;2022-12-18T03:45:48;4.13;;;1.97;;
16922;SDS011;8578;50.938;13.556;2022-12-18T03:48:18;3.00;;;1.73;;
16922;SDS011;8578;50.938;13.556;2022-12-18T03:50:49;6.43;;;1.90;;
16922;SDS011;8578;50.938;13.556;2022-12-18T03:53:23;4.50;;;2.03;;
16922;SDS011;8578;50.938;13.556;2022-12-18T03:55:52;3.73;;;1.80;;
16922;SDS011;8578;50.938;13.556;2022-12-18T03:58:23;4.67;;;1.97;;
16922;SDS011;8578;50.938;13.556;2022-12-18T04:00:58;3.10;;;2.30;;
16922;SDS011;8578;50.938;13.556;2022-12-18T04:03:27;3.70;;;1.97;;
16922;SDS011;8578;50.938;13.556;2022-12-18T04:05:56;4.77;;;1.97;;
16922;SDS011;8578;50.938;13.556;2022-12-18T04:08:26;7.40;;;2.10;;
16922;SDS011;8578;50.938;13.556;2022-12-18T04:11:00;5.30;;;2.30;;
16922;SDS011;8578;50.938;13.556;2022-12-18T04:13:32;5.50;;;2.10;;
16922;SDS011;8578;50.938;13.556;2022-12-18T04:16:01;6.47;;;2.20;;
16922;SDS011;8578;50.938;13.556;2022-12-18T04:18:29;3.37;;;1.70;;
16922;SDS011;8578;50.938;13.556;2022-12-18T04:20:58;3.07;;;1.93;;
16922;SDS011;8578;50.938;13.556;2022-12-18T04:23:26;3.50;;;1.57;;
16922;SDS011;8578;50.938;13.556;2022-12-18T04:25:56;4.93;;;1.87;;
16922;SDS011;8578;50.938;13.556;2022-12-18T04:28:43;4.60;;;2.00;;
16922;SDS011;8578;50.938;13.556;2022-12-18T04:31:11;6.90;;;1.80;;
16922;SDS011;8578;50.938;13.556;2022-12-18T04:33:39;5.47;;;1.60;;
16922;SDS011;8578;50.938;13.556;2022-12-18T04:36:08;4.97;;;2.60;;
16922;SDS011;8578;50.938;13.556;2022-12-18T04:38:36;4.10;;;2.17;;
16922;SDS011;8578;50.938;13.556;2022-12-18T04:41:08;4.57;;;2.00;;
16922;SDS011;8578;50.938;13.556;2022-12-18T04:43:35;8.47;;;2.10;;
16922;SDS011;8578;50.938;13.556;2022-12-18T04:46:05;3.77;;;2.10;;
16922;SDS011;8578;50.938;13.556;2022-12-18T04:48:33;2.17;;;1.50;;
16922;SDS011;8578;50.938;13.556;2022-12-18T04:51:01;8.43;;;2.57;;
16922;SDS011;8578;50.938;13.556;2022-12-18T04:53:29;6.07;;;2.37;;
16922;SDS011;8578;50.938;13.556;2022-12-18T04:56:05;5.03;;;2.10;;
16922;SDS011;8578;50.938;13.556;2022-12-18T04:58:33;3.53;;;1.53;;
16922;SDS011;8578;50.938;13.556;2022-12-18T05:01:01;2.93;;;1.77;;
16922;SDS011;8578;50.938;13.556;2022-12-18T05:03:30;4.67;;;2.10;;
16922;SDS011;8578;50.938;13.556;2022-12-18T05:05:58;5.97;;;2.13;;
16922;SDS011;8578;50.938;13.556;2022-12-18T05:08:26;7.83;;;2.13;;
16922;SDS011;8578;50.938;13.556;2022-12-18T05:10:57;2.97;;;1.60;;
16922;SDS011;8578;50.938;13.556;2022-12-18T05:13:25;2.20;;;1.33;;
16922;SDS011;8578;50.938;13.556;2022-12-18T05:15:53;4.20;;;2.00;;
16922;SDS011;8578;50.938;13.556;2022-12-18T05:18:21;3.20;;;1.60;;
16922;SDS011;8578;50.938;13.556;2022-12-18T05:20:50;7.17;;;1.80;;
16922;SDS011;8578;50.938;13.556;2022-12-18T05:23:18;5.87;;;2.33;;
16922;SDS011;8578;50.938;13.556;2022-12-18T05:25:46;2.53;;;1.33;;
16922;SDS011;8578;50.938;13.556;2022-12-18T05:28:14;3.23;;;2.07;;
16922;SDS011;8578;50.938;13.556;2022-12-18T05:30:41;4.53;;;1.70;;
16922;SDS011;8578;50.938;13.556;2022-12-18T05:33:09;2.63;;;1.43;;
16922;SDS011;8578;50.938;13.556;2022-12-18T05:35:37;4.83;;;1.47;;
16922;SDS011;8578;50.938;13.556;2022-12-18T05:38:06;3.00;;;1.37;;
16922;SDS011;8578;50.938;13.556;2022-12-18T05:40:33;4.07;;;2.20;;
16922;SDS011;8578;50.938;13.556;2022-12-18T05:43:00;4.73;;;2.10;;
16922;SDS011;8578;50.938;13.556;2022-12-18T05:45:28;7.23;;;2.53;;
16922;SDS011;8578;50.938;13.556;2022-12-18T05:47:56;4.30;;;1.53;;
16922;SDS011;8578;50.938;13.556;2022-12-18T05:50:23;3.90;;;1.63;;
16922;SDS011;8578;50.938;13.556;2022-12-18T05:52:50;4.87;;;1.63;;
16922;SDS011;8578;50.938;13.556;2022-12-18T05:55:19;2.97;;;1.30;;
16922;SDS011;8578;50.938;13.556;2022-12-18T05:57:47;2.00;;;1.10;;
16922;SDS011;8578;50.938;13.556;2022-12-18T06:00:14;4.00;;;1.53;;
16922;SDS011;8578;50.938;13.556;2022-12-18T06:02:45;4.67;;;2.37;;
16922;SDS011;8578;50.938;13.556;2022-12-18T06:05:13;8.97;;;1.83;;
16922;SDS011;8578;50.938;13.556;2022-12-18T06:07:41;3.63;;;1.93;;
16922;SDS011;8578;50.938;13.556;2022-12-18T06:10:08;3.63;;;1.70;;
16922;SDS011;8578;50.938;13.556;2022-12-18T06:12:37;5.17;;;2.27;;
16922;SDS011;8578;50.938;13.556;2022-12-18T06:15:06;2.73;;;1.17;;
16922;SDS011;8578;50.938;13.556;2022-12-18T06:17:33;1.57;;;1.00;;
16922;SDS011;8578;50.938;13.556;2022-12-18T06:20:01;2.53;;;1.33;;
16922;SDS011;8578;50.938;13.556;2022-12-18T06:22:30;3.73;;;1.93;;
16922;SDS011;8578;50.938;13.556;2022-12-18T06:24:58;2.03;;;0.90;;
16922;SDS011;8578;50.938;13.556;2022-12-18T06:27:26;2.27;;;1.60;;
16922;SDS011;8578;50.938;13.556;2022-12-18T06:29:55;3.33;;;1.83;;
16922;SDS011;8578;50.938;13.556;2022-12-18T06:32:23;4.07;;;1.37;;
16922;SDS011;8578;50.938;13.556;2022-12-18T06:34:50;4.37;;;1.97;;
16922;SDS011;8578;50.938;13.556;2022-12-18T06:37:17;5.60;;;1.73;;
16922;SDS011;8578;50.938;13.556;2022-12-18T06:39:45;4.20;;;1.47;;
16922;SDS011;8578;50.938;13.556;2022-12-18T06:42:12;2.33;;;1.40;;
16922;SDS011;8578;50.938;13.556;2022-12-18T06:44:40;3.60;;;1.17;;
16922;SDS011;8578;50.938;13.556;2022-12-18T06:47:09;4.37;;;1.70;;
16922;SDS011;8578;50.938;13.556;2022-12-18T06:49:36;6.93;;;2.60;;
16922;SDS011;8578;50.938;13.556;2022-12-18T06:52:04;3.23;;;2.13;;
16922;SDS011;8578;50.938;13.556;2022-12-18T06:54:31;3.70;;;2.07;;
16922;SDS011;8578;50.938;13.556;2022-12-18T06:56:59;5.37;;;3.03;;
16922;SDS011;8578;50.938;13.556;2022-12-18T06:59:27;6.13;;;2.37;;
16922;SDS011;8578;50.938;13.556;2022-12-18T07:01:54;7.07;;;2.60;;
16922;SDS011;8578;50.938;13.556;2022-12-18T07:04:24;6.10;;;2.17;;
16922;SDS011;8578;50.938;13.556;2022-12-18T07:06:54;4.77;;;2.20;;
16922;SDS011;8578;50.938;13.556;2022-12-18T07:09:21;5.57;;;2.90;;
16922;SDS011;8578;50.938;13.556;2022-12-18T07:11:49;6.30;;;2.00;;
16922;SDS011;8578;50.938;13.556;2022-12-18T07:14:17;5.43;;;2.60;;
16922;SDS011;8578;50.938;13.556;2022-12-18T07:16:45;9.83;;;3.87;;
16922;SDS011;8578;50.938;13.556;2022-12-18T07:19:12;11.73;;;4.63;;
16922;SDS011;8578;50.938;13.556;2022-12-18T07:21:41;17.47;;;5.50;;
16922;SDS011;8578;50.938;13.556;2022-12-18T07:24:09;11.10;;;5.90;;
16922;SDS011;8578;50.938;13.556;2022-12-18T07:26:36;9.70;;;4.77;;
16922;SDS011;8578;50.938;13.556;2022-12-18T07:29:04;13.57;;;6.33;;
16922;SDS011;8578;50.938;13.556;2022-12-18T07:31:31;14.77;;;7.17;;
16922;SDS011;8578;50.938;13.556;2022-12-18T07:33:59;10.73;;;5.97;;
16922;SDS011;8578;50.938;13.556;2022-12-18T07:36:27;11.27;;;4.43;;
16922;SDS011;8578;50.938;13.556;2022-12-18T07:38:55;8.37;;;5.03;;
16922;SDS011;8578;50.938;13.556;2022-12-18T07:41:23;11.50;;;5.50;;
16922;SDS011;8578;50.938;13.556;2022-12-18T07:43:50;8.30;;;4.00;;
16922;SDS011;8578;50.938;13.556;2022-12-18T07:46:18;8.27;;;4.23;;
16922;SDS011;8578;50.938;13.556;2022-12-18T07:48:46;10.03;;;4.10;;
16922;SDS011;8578;50.938;13.556;2022-12-18T07:51:15;7.63;;;3.10;;
16922;SDS011;8578;50.938;13.556;2022-12-18T07:53:43;9.10;;;4.30;;
16922;SDS011;8578;50.938;13.556;2022-12-18T07:56:12;4.30;;;1.70;;
16922;SDS011;8578;50.938;13.556;2022-12-18T07:58:57;8.30;;;2.97;;
16922;SDS011;8578;50.938;13.556;2022-12-18T08:01:25;8.13;;;3.07;;
16922;SDS011;8578;50.938;13.556;2022-12-18T08:03:53;5.07;;;3.00;;
16922;SDS011;8578;50.938;13.556;2022-12-18T08:06:20;8.63;;;3.10;;
16922;SDS011;8578;50.938;13.556;2022-12-18T08:08:50;7.03;;;2.23;;
16922;SDS011;8578;50.938;13.556;2022-12-18T08:11:19;6.50;;;2.50;;
16922;SDS011;8578;50.938;13.556;2022-12-18T08:13:47;4.43;;;1.77;;
16922;SDS011;8578;50.938;13.556;2022-12-18T08:16:15;7.37;;;3.17;;
16922;SDS011;8578;50.938;13.556;2022-12-18T08:18:43;7.80;;;3.37;;
16922;SDS011;8578;50.938;13.556;2022-12-18T08:21:11;9.93;;;3.33;;
16922;SDS011;8578;50.938;13.556;2022-12-18T08:23:39;10.20;;;3.67;;
16922;SDS011;8578;50.938;13.556;2022-12-18T08:26:08;6.90;;;3.50;;
16922;SDS011;8578;50.938;13.556;2022-12-18T08:28:37;6.87;;;3.87;;
16922;SDS011;8578;50.938;13.556;2022-12-18T08:31:05;10.70;;;4.63;;
16922;SDS011;8578;50.938;13.556;2022-12-18T08:33:33;9.57;;;4.07;;
16922;SDS011;8578;50.938;13.556;2022-12-18T08:36:01;10.70;;;5.47;;
16922;SDS011;8578;50.938;13.556;2022-12-18T08:38:28;13.33;;;5.33;;
16922;SDS011;8578;50.938;13.556;2022-12-18T08:40:58;13.03;;;5.47;;
16922;SDS011;8578;50.938;13.556;2022-12-18T08:43:26;16.40;;;5.60;;
16922;SDS011;8578;50.938;13.556;2022-12-18T08:46:15;10.27;;;4.90;;
16922;SDS011;8578;50.938;13.556;2022-12-18T08:48:43;10.83;;;4.93;;
16922;SDS011;8578;50.938;13.556;2022-12-18T08:51:10;11.63;;;6.07;;
16922;SDS011;8578;50.938;13.556;2022-12-18T08:53:38;5.03;;;3.27;;
16922;SDS011;8578;50.938;13.556;2022-12-18T08:56:07;9.03;;;4.10;;
16922;SDS011;8578;50.938;13.556;2022-12-18T08:58:34;15.10;;;4.90;;
16922;SDS011;8578;50.938;13.556;2022-12-18T09:01:02;11.33;;;4.37;;
16922;SDS011;8578;50.938;13.556;2022-12-18T09:03:31;11.83;;;4.67;;
16922;SDS011;8578;50.938;13.556;2022-12-18T09:05:59;11.37;;;3.37;;
16922;SDS011;8578;50.938;13.556;2022-12-18T09:08:27;10.80;;;5.10;;
16922;SDS011;8578;50.938;13.556;2022-12-18T09:10:55;9.70;;;4.60;;
16922;SDS011;8578;50.938;13.556;2022-12-18T09:13:23;7.53;;;3.20;;
16922;SDS011;8578;50.938;13.556;2022-12-18T09:15:52;9.50;;;3.07;;
16922;SDS011;8578;50.938;13.556;2022-12-18T09:18:22;8.23;;;4.20;;
16922;SDS011;8578;50.938;13.556;2022-12-18T09:20:51;11.60;;;3.67;;
16922;SDS011;8578;50.938;13.556;2022-12-18T09:23:19;11.20;;;4.87;;
16922;SDS011;8578;50.938;13.556;2022-12-18T09:25:47;11.80;;;4.17;;
16922;SDS011;8578;50.938;13.556;2022-12-18T09:28:16;9.63;;;2.40;;
16922;SDS011;8578;50.938;13.556;2022-12-18T09:30:45;6.40;;;2.67;;
16922;SDS011;8578;50.938;13.556;2022-12-18T09:33:14;11.83;;;4.07;;
16922;SDS011;8578;50.938;13.556;2022-12-18T09:35:42;9.40;;;3.60;;
16922;SDS011;8578;50.938;13.556;2022-12-18T09:38:15;13.67;;;5.27;;
16922;SDS011;8578;50.938;13.556;2022-12-18T09:40:44;9.77;;;4.30;;
16922;SDS011;8578;50.938;13.556;2022-12-18T09:43:13;11.93;;;4.70;;
16922;SDS011;8578;50.938;13.556;2022-12-18T09:45:46;10.83;;;5.10;;
16922;SDS011;8578;50.938;13.556;2022-12-18T09:48:30;11.33;;;4.97;;
16922;SDS011;8578;50.938;13.556;2022-12-18T09:51:00;8.30;;;4.13;;
16922;SDS011;8578;50.938;13.556;2022-12-18T09:53:32;11.63;;;5.03;;
16922;SDS011;8578;50.938;13.556;2022-12-18T09:56:02;14.50;;;5.83;;
16922;SDS011;8578;50.938;13.556;2022-12-18T09:58:31;15.43;;;6.47;;
16922;SDS011;8578;50.938;13.556;2022-12-18T10:01:00;13.33;;;4.70;;
16922;SDS011;8578;50.938;13.556;2022-12-18T10:03:27;9.03;;;5.30;;
16922;SDS011;8578;50.938;13.556;2022-12-18T10:05:58;14.87;;;6.00;;
16922;SDS011;8578;50.938;13.556;2022-12-18T10:08:30;14.17;;;5.63;;
16922;SDS011;8578;50.938;13.556;2022-12-18T10:11:03;13.60;;;5.47;;
16922;SDS011;8578;50.938;13.556;2022-12-18T10:13:40;15.03;;;5.43;;
16922;SDS011;8578;50.938;13.556;2022-12-18T10:16:09;12.23;;;5.57;;
16922;SDS011;8578;50.938;13.556;2022-12-18T10:18:58;17.77;;;6.27;;
16922;SDS011;8578;50.938;13.556;2022-12-18T10:21:28;15.90;;;7.20;;
16922;SDS011;8578;50.938;13.556;2022-12-18T10:23:58;14.60;;;6.87;;
16922;SDS011;8578;50.938;13.556;2022-12-18T10:26:30;15.73;;;7.00;;
16922;SDS011;8578;50.938;13.556;2022-12-18T10:28:58;16.97;;;6.70;;
16922;SDS011;8578;50.938;13.556;2022-12-18T10:31:31;15.90;;;6.13;;
16922;SDS011;8578;50.938;13.556;2022-12-18T10:33:58;14.13;;;5.93;;
16922;SDS011;8578;50.938;13.556;2022-12-18T10:36:26;13.67;;;6.03;;
16922;SDS011;8578;50.938;13.556;2022-12-18T10:38:53;10.87;;;5.00;;
16922;SDS011;8578;50.938;13.556;2022-12-18T10:41:25;13.57;;;5.67;;
16922;SDS011;8578;50.938;13.556;2022-12-18T10:44:12;18.30;;;7.53;;
16922;SDS011;8578;50.938;13.556;2022-12-18T10:46:40;20.80;;;8.50;;
16922;SDS011;8578;50.938;13.556;2022-12-18T10:49:17;50.23;;;17.67;;
16922;SDS011;8578;50.938;13.556;2022-12-18T10:51:45;31.80;;;12.53;;
16922;SDS011;8578;50.938;13.556;2022-12-18T10:54:14;22.77;;;9.13;;
16922;SDS011;8578;50.938;13.556;2022-12-18T10:56:43;14.63;;;6.30;;
16922;SDS011;8578;50.938;13.556;2022-12-18T10:59:13;13.70;;;5.43;;
16922;SDS011;8578;50.938;13.556;2022-12-18T11:01:50;15.47;;;5.73;;
16922;SDS011;8578;50.938;13.556;2022-12-18T11:04:19;11.87;;;5.03;;
16922;SDS011;8578;50.938;13.556;2022-12-18T11:06:57;13.87;;;5.67;;
16922;SDS011;8578;50.938;13.556;2022-12-18T11:09:26;13.30;;;5.73;;
16922;SDS011;8578;50.938;13.556;2022-12-18T11:11:54;11.57;;;5.43;;
16922;SDS011;8578;50.938;13.556;2022-12-18T11:14:24;22.60;;;7.47;;
16922;SDS011;8578;50.938;13.556;2022-12-18T11:16:52;39.07;;;13.60;;
16922;SDS011;8578;50.938;13.556;2022-12-18T11:19:40;31.83;;;11.90;;
16922;SDS011;8578;50.938;13.556;2022-12-18T11:22:17;35.57;;;11.47;;
16922;SDS011;8578;50.938;13.556;2022-12-18T11:24:51;31.57;;;10.90;;
16922;SDS011;8578;50.938;13.556;2022-12-18T11:27:39;14.13;;;6.27;;
16922;SDS011;8578;50.938;13.556;2022-12-18T11:30:09;14.90;;;5.27;;
16922;SDS011;8578;50.938;13.556;2022-12-18T11:32:38;18.50;;;5.93;;
16922;SDS011;8578;50.938;13.556;2022-12-18T11:35:10;15.83;;;6.33;;
16922;SDS011;8578;50.938;13.556;2022-12-18T11:37:40;19.43;;;7.23;;
16922;SDS011;8578;50.938;13.556;2022-12-18T11:40:11;20.40;;;8.23;;
16922;SDS011;8578;50.938;13.556;2022-12-18T11:42:41;29.27;;;10.80;;
16922;SDS011;8578;50.938;13.556;2022-12-18T11:45:25;20.27;;;7.57;;
16922;SDS011;8578;50.938;13.556;2022-12-18T11:47:55;12.30;;;4.63;;
16922;SDS011;8578;50.938;13.556;2022-12-18T11:50:24;9.70;;;4.07;;
16922;SDS011;8578;50.938;13.556;2022-12-18T11:52:52;8.67;;;3.37;;
16922;SDS011;8578;50.938;13.556;2022-12-18T11:55:28;5.10;;;2.70;;
16922;SDS011;8578;50.938;13.556;2022-12-18T11:58:00;5.50;;;2.20;;
16922;SDS011;8578;50.938;13.556;2022-12-18T12:00:32;9.53;;;2.80;;
16922;SDS011;8578;50.938;13.556;2022-12-18T12:03:23;6.20;;;2.53;;
16922;SDS011;8578;50.938;13.556;2022-12-18T12:05:58;5.27;;;2.10;;
16922;SDS011;8578;50.938;13.556;2022-12-18T12:08:30;5.53;;;2.43;;
16922;SDS011;8578;50.938;13.556;2022-12-18T12:11:01;4.80;;;2.33;;
16922;SDS011;8578;50.938;13.556;2022-12-18T12:13:35;4.90;;;2.33;;
16922;SDS011;8578;50.938;13.556;2022-12-18T12:16:09;7.83;;;2.53;;
16922;SDS011;8578;50.938;13.556;2022-12-18T12:18:42;7.17;;;2.57;;
16922;SDS011;8578;50.938;13.556;2022-12-18T12:21:12;6.77;;;2.43;;
16922;SDS011;8578;50.938;13.556;2022-12-18T12:23:45;6.63;;;2.43;;
16922;SDS011;8578;50.938;13.556;2022-12-18T12:26:17;6.00;;;2.77;;
16922;SDS011;8578;50.938;13.556;2022-12-18T12:28:50;3.90;;;2.27;;
16922;SDS011;8578;50.938;13.556;2022-12-18T12:31:22;6.77;;;2.10;;
16922;SDS011;8578;50.938;13.556;2022-12-18T12:33:56;6.67;;;3.03;;
16922;SDS011;8578;50.938;13.556;2022-12-18T12:36:29;8.17;;;3.40;;
16922;SDS011;8578;50.938;13.556;2022-12-18T12:39:01;5.63;;;3.07;;
16922;SDS011;8578;50.938;13.556;2022-12-18T12:41:30;8.97;;;3.80;;
16922;SDS011;8578;50.938;13.556;2022-12-18T12:44:17;4.73;;;2.33;;
16922;SDS011;8578;50.938;13.556;2022-12-18T12:46:48;7.53;;;3.13;;
16922;SDS011;8578;50.938;13.556;2022-12-18T12:49:17;3.80;;;2.00;;
16922;SDS011;8578;50.938;13.556;2022-12-18T12:51:45;6.10;;;2.57;;
16922;SDS011;8578;50.938;13.556;2022-12-18T12:54:15;7.10;;;2.87;;
16922;SDS011;8578;50.938;13.556;2022-12-18T12:56:45;6.30;;;2.97;;
16922;SDS011;8578;50.938;13.556;2022-12-18T12:59:19;6.83;;;2.80;;
16922;SDS011;8578;50.938;13.556;2022-12-18T13:01:52;4.47;;;2.20;;
16922;SDS011;8578;50.938;13.556;2022-12-18T13:04:23;8.37;;;3.27;;
16922;SDS011;8578;50.938;13.556;2022-12-18T13:06:55;5.80;;;2.70;;
16922;SDS011;8578;50.938;13.556;2022-12-18T13:09:29;6.43;;;2.80;;
16922;SDS011;8578;50.938;13.556;2022-12-18T13:12:01;10.63;;;3.37;;
16922;SDS011;8578;50.938;13.556;2022-12-18T13:14:47;7.93;;;3.00;;
16922;SDS011;8578;50.938;13.556;2022-12-18T13:20:07;6.97;;;2.90;;
16922;SDS011;8578;50.938;13.556;2022-12-18T13:22:36;10.20;;;3.50;;
16922;SDS011;8578;50.938;13.556;2022-12-18T13:27:54;10.33;;;4.60;;
16922;SDS011;8578;50.938;13.556;2022-12-18T13:36:00;6.50;;;3.30;;
16922;SDS011;8578;50.938;13.556;2022-12-18T13:38:33;10.03;;;3.90;;
16922;SDS011;8578;50.938;13.556;2022-12-18T13:41:01;8.53;;;3.80;;
16922;SDS011;8578;50.938;13.556;2022-12-18T13:43:30;6.77;;;2.63;;
16922;SDS011;8578;50.938;13.556;2022-12-18T13:46:00;7.80;;;3.03;;
16922;SDS011;8578;50.938;13.556;2022-12-18T13:48:29;5.00;;;2.63;;
16922;SDS011;8578;50.938;13.556;2022-12-18T13:51:00;9.30;;;3.40;;
16922;SDS011;8578;50.938;13.556;2022-12-18T13:53:31;4.57;;;2.73;;
16922;SDS011;8578;50.938;13.556;2022-12-18T13:56:00;5.67;;;2.37;;
16922;SDS011;8578;50.938;13.556;2022-12-18T13:58:29;6.27;;;2.07;;
16922;SDS011;8578;50.938;13.556;2022-12-18T14:00:56;6.97;;;2.77;;
16922;SDS011;8578;50.938;13.556;2022-12-18T14:03:26;8.97;;;3.30;;
16922;SDS011;8578;50.938;13.556;2022-12-18T14:05:55;8.03;;;3.23;;
16922;SDS011;8578;50.938;13.556;2022-12-18T14:08:26;7.57;;;3.13;;
16922;SDS011;8578;50.938;13.556;2022-12-18T14:10:54;7.47;;;3.10;;
16922;SDS011;8578;50.938;13.556;2022-12-18T14:13:23;9.53;;;3.20;;
16922;SDS011;8578;50.938;13.556;2022-12-18T14:15:52;8.13;;;3.17;;
16922;SDS011;8578;50.938;13.556;2022-12-18T14:18:20;6.23;;;2.47;;
16922;SDS011;8578;50.938;13.556;2022-12-18T14:20:49;11.33;;;3.07;;
16922;SDS011;8578;50.938;13.556;2022-12-18T14:23:33;6.90;;;2.70;;
16922;SDS011;8578;50.938;13.556;2022-12-18T14:26:01;9.27;;;3.40;;
16922;SDS011;8578;50.938;13.556;2022-12-18T14:28:31;9.53;;;3.57;;
16922;SDS011;8578;50.938;13.556;2022-12-18T14:30:59;10.20;;;4.10;;
16922;SDS011;8578;50.938;13.556;2022-12-18T14:33:27;11.90;;;3.93;;
16922;SDS011;8578;50.938;13.556;2022-12-18T14:35:56;9.83;;;3.33;;
16922;SDS011;8578;50.938;13.556;2022-12-18T14:38:24;5.60;;;2.57;;
16922;SDS011;8578;50.938;13.556;2022-12-18T14:40:54;6.40;;;2.37;;
16922;SDS011;8578;50.938;13.556;2022-12-18T14:43:21;6.73;;;2.77;;
16922;SDS011;8578;50.938;13.556;2022-12-18T14:45:49;9.97;;;4.37;;
16922;SDS011;8578;50.938;13.556;2022-12-18T14:48:18;10.50;;;3.90;;
16922;SDS011;8578;50.938;13.556;2022-12-18T14:50:56;10.40;;;4.37;;
16922;SDS011;8578;50.938;13.556;2022-12-18T14:53:27;8.00;;;4.23;;
16922;SDS011;8578;50.938;13.556;2022-12-18T14:55:57;17.63;;;5.43;;
16922;SDS011;8578;50.938;13.556;2022-12-18T14:58:24;10.87;;;5.60;;
16922;SDS011;8578;50.938;13.556;2022-12-18T15:00:54;10.23;;;4.37;;
16922;SDS011;8578;50.938;13.556;2022-12-18T15:03:22;7.30;;;3.43;;
16922;SDS011;8578;50.938;13.556;2022-12-18T15:05:50;9.87;;;3.50;;
16922;SDS011;8578;50.938;13.556;2022-12-18T15:08:27;10.63;;;4.37;;
16922;SDS011;8578;50.938;13.556;2022-12-18T15:10:55;11.67;;;4.50;;